Hlavní strana
METAR-TAF:

METAR-TAF

Letiště :

Medicine Hat, Alberta, Kanada

zeměpisná šířka: 50-01N, zeměpisná délka: 110-43W, výška: 717 m

Aktuální stav počasí

Zpráva byla vytvořena před 15 minutami, v 23:00 UTC
Severozápadní vítr 5 kt, proměnlivý mezi západoseverozápadním a severoseverovýchodním
Teplota 26°C
Vlhkost vzduchu 24%
Tlak 1013 hPa
Viditelnost: 48.3 km
Polojasno ve výšce 9500 ft

METAR: CYXH 222300Z 31005KT 290V020 30SM SCT095 26/04 A2991 RMK CU3 SLP128 DENSITY ALT 4300FT

Čas: 17:15 (23:15 UTC)

Předpověď počasí

Zpráva byla vytvořena před 1 hodinou a 2 minutami, v 22:13 UTC
Předpověď platná od 22 v 22 UTC do 23 v 06 UTC
Severovýchodní vítr 10 kt s nárazy do 20 kt
Viditelnost: 10 km
Polojasno ve výšce 9000 ft
Od 23 v 0100 UTC
Severní vítr 6 kt
Viditelnost: 10 km
Skoro jasno ve výšce 8000 ft

TAF: CYXH 222213Z 2222/2306 04010G20KT P6SM SCT090 FM230100 35006KT P6SM FEW080 RMK NXT FCST BY 230000Z

Stav a předpovědi počasí z více než 4 000 letišť (zprávy METAR a TAF).

Červené a žluté tečky na mapě představují dostupné meteorologické stanice.

Když kurzor umístíte na tečku, zobrazí se název stanice.

Pak kliknutím zobrazíte stav a předpověď počasí.

Chcete-li změnit mapu, kliknutím na zelené tlačítko se znaménkem +mapu přiblížíte, kliknutím na zelené tlačítko se znaménkem – mapu oddálíte a kliknutím na zelené šipky přejdete na sousední mapy.


METAR-TAF: